Terminal Aerodrome Forecast
Issued by NWS

Current Version | Previous Version | Text Only | Print | Product List | Glossary On
Versions: 1 2 3 4 5 6 7 8 9 10 11 12 13 14 15 16 17 18 19
000
FTUS44 KMAF 230200 AAA
TAFINK
TAF AMD
KINK 230218Z 2302/2324 15009KT P6SM SCT080 BKN120
      TEMPO 2302/2304 -TSRA SCT080CB=

USA.gov is the U.S. government's official web portal to all federal, state and local government web resources and services.